createdAt,value
2019-04-27T00:01:05.200Z,100.00
2019-04-27T00:03:41.398Z,100.00
2019-04-27T00:06:13.526Z,99.71
2019-04-27T00:08:47.994Z,98.84
2019-04-27T00:11:23.099Z,97.69
2019-04-27T00:13:53.602Z,97.69
2019-04-27T00:16:47.023Z,96.55
2019-04-27T00:19:31.701Z,94.51
2019-04-27T00:22:03.152Z,94.08
2019-04-27T00:24:33.568Z,93.45
2019-04-27T00:27:03.300Z,93.45
2019-04-27T00:29:33.194Z,93.49
2019-04-27T00:32:04.285Z,92.30
2019-04-27T00:34:33.966Z,92.10
2019-04-27T00:37:13.634Z,92.17
2019-04-27T00:39:53.298Z,92.23
2019-04-27T00:42:23.182Z,91.83
2019-04-27T00:44:54.106Z,91.13
2019-04-27T00:47:23.864Z,91.25
2019-04-27T00:49:54.998Z,92.56
2019-04-27T00:52:24.110Z,92.56
2019-04-27T00:54:53.910Z,92.94
2019-04-27T00:57:45.795Z,91.95
2019-04-27T01:00:33.741Z,91.16
2019-04-27T01:03:09.866Z,92.25
2019-04-27T01:05:39.009Z,91.45
2019-04-27T01:08:07.998Z,95.13
2019-04-27T01:10:37.106Z,94.26
2019-04-27T01:13:06.657Z,92.46
2019-04-27T01:15:35.718Z,92.56
2019-04-27T01:18:11.952Z,92.56
2019-04-27T01:20:36.167Z,92.94
2019-04-27T01:23:05.272Z,92.94
2019-04-27T01:26:03.294Z,93.30
2019-04-27T01:28:41.059Z,92.52
2019-04-27T01:31:11.662Z,93.30
2019-04-27T01:33:40.748Z,93.26
2019-04-27T01:36:10.784Z,93.23
2019-04-27T01:38:41.259Z,93.78
2019-04-27T01:41:10.334Z,93.85
2019-04-27T01:43:39.414Z,95.22
2019-04-27T01:46:09.162Z,94.33
2019-04-27T01:48:38.697Z,95.53
2019-04-27T01:51:09.219Z,96.37
2019-04-27T01:53:39.091Z,96.37
2019-04-27T01:56:09.193Z,95.39
2019-04-27T01:58:40.694Z,94.93
2019-04-27T02:01:29.267Z,93.84
2019-04-27T02:04:09.238Z,94.91
2019-04-27T02:06:38.634Z,94.91
2019-04-27T02:09:10.068Z,95.36
2019-04-27T02:11:39.214Z,98.50
2019-04-27T02:14:09.505Z,96.36
2019-04-27T02:16:39.215Z,96.11
2019-04-27T02:19:09.008Z,96.11
2019-04-27T02:21:39.352Z,95.50
2019-04-27T02:24:09.722Z,95.17
2019-04-27T02:26:39.892Z,94.68
2019-04-27T02:29:23.815Z,94.85
2019-04-27T02:32:14.670Z,94.30
2019-04-27T02:34:50.489Z,94.95
2019-04-27T02:37:20.114Z,94.48
2019-04-27T02:39:50.100Z,95.42
2019-04-27T02:42:20.230Z,95.64
2019-04-27T02:44:49.638Z,95.37
2019-04-27T02:47:20.752Z,96.16
2019-04-27T02:49:50.788Z,96.16
2019-04-27T02:52:35.419Z,96.30
2019-04-27T02:55:05.966Z,96.45
2019-04-27T02:57:34.982Z,96.58
2019-04-27T03:00:05.165Z,96.94
2019-04-27T03:02:40.125Z,96.39
2019-04-27T03:05:10.875Z,96.49
2019-04-27T03:07:42.669Z,96.69
2019-04-27T03:10:11.234Z,97.57
2019-04-27T03:12:45.689Z,98.06
2019-04-27T03:15:42.827Z,99.30
2019-04-27T03:18:16.111Z,100.00
2019-04-27T03:20:54.321Z,99.90
2019-04-27T03:23:23.494Z,99.39
2019-04-27T03:26:00.370Z,100.00
2019-04-27T03:28:29.975Z,100.00
2019-04-27T03:31:02.452Z,100.00
2019-04-27T03:33:32.575Z,100.00
2019-04-27T03:36:03.040Z,100.00
2019-04-27T03:38:32.444Z,100.00
2019-04-27T03:41:01.621Z,99.22
2019-04-27T03:43:30.785Z,98.83
2019-04-27T03:46:00.642Z,99.11
2019-04-27T03:48:29.991Z,99.00
2019-04-27T03:51:17.041Z,99.40
2019-04-27T03:54:00.174Z,99.40
2019-04-27T03:56:31.784Z,99.06
2019-04-27T03:59:09.813Z,99.06
2019-04-27T04:01:39.593Z,96.74
2019-04-27T04:04:10.372Z,99.32
2019-04-27T04:06:40.230Z,98.04
2019-04-27T04:09:11.000Z,98.29
2019-04-27T04:11:55.592Z,96.98
2019-04-27T04:14:25.008Z,96.98
2019-04-27T04:16:59.954Z,97.07
2019-04-27T04:19:29.637Z,96.60
2019-04-27T04:21:59.826Z,96.20
2019-04-27T04:24:31.693Z,96.06
2019-04-27T04:27:00.170Z,95.84
2019-04-27T04:29:30.713Z,95.65
2019-04-27T04:32:00.573Z,95.17
2019-04-27T04:34:30.042Z,96.58
2019-04-27T04:37:00.509Z,95.58
2019-04-27T04:39:29.915Z,95.58
2019-04-27T04:42:26.047Z,95.45
2019-04-27T04:45:17.197Z,95.65
2019-04-27T04:47:50.328Z,95.46
2019-04-27T04:50:20.296Z,95.41
2019-04-27T04:52:50.231Z,95.91
2019-04-27T04:55:20.342Z,95.91
2019-04-27T04:57:49.816Z,96.26
2019-04-27T05:00:19.903Z,96.03
2019-04-27T05:02:49.329Z,96.03
2019-04-27T05:05:19.366Z,96.75
2019-04-27T05:07:48.697Z,97.20
2019-04-27T05:10:18.864Z,97.13
2019-04-27T05:12:49.038Z,97.68
2019-04-27T05:15:20.648Z,97.62
2019-04-27T05:17:51.059Z,98.02
2019-04-27T05:20:26.482Z,99.36
2019-04-27T05:22:55.482Z,99.03
2019-04-27T05:25:25.843Z,100.00
2019-04-27T05:27:54.830Z,100.00
2019-04-27T05:30:23.831Z,100.00
2019-04-27T05:32:52.803Z,100.00
2019-04-27T05:35:21.803Z,100.00
2019-04-27T05:37:50.797Z,100.00
2019-04-27T05:40:19.783Z,100.00
2019-04-27T05:42:55.089Z,100.00
2019-04-27T05:46:44.268Z,100.00
2019-04-27T05:49:18.851Z,100.00
2019-04-27T05:51:50.149Z,100.00
2019-04-27T05:54:19.616Z,100.00
2019-04-27T05:56:49.258Z,100.00
2019-04-27T05:59:19.830Z,100.00
2019-04-27T06:01:49.355Z,100.00
2019-04-27T06:04:19.348Z,100.00
2019-04-27T06:06:49.877Z,100.00
2019-04-27T06:09:19.524Z,100.00
2019-04-27T06:11:50.672Z,100.00
2019-04-27T06:14:19.439Z,100.00
2019-04-27T06:16:51.029Z,100.00
2019-04-27T06:19:19.405Z,100.00
2019-04-27T06:21:49.986Z,100.00
2019-04-27T06:24:19.183Z,100.00
2019-04-27T06:26:49.843Z,100.00
2019-04-27T06:29:19.510Z,100.00
2019-04-27T06:31:49.636Z,100.00
2019-04-27T06:34:19.497Z,100.00
2019-04-27T06:36:48.751Z,100.00
2019-04-27T06:39:20.281Z,100.00
2019-04-27T06:41:49.142Z,100.00
2019-04-27T06:44:19.600Z,100.00
2019-04-27T06:46:49.095Z,100.00
2019-04-27T06:49:19.455Z,100.00
2019-04-27T06:51:49.763Z,100.00
2019-04-27T06:54:19.769Z,100.00
2019-04-27T06:56:50.431Z,100.00
2019-04-27T06:59:20.699Z,100.00
2019-04-27T07:01:49.723Z,100.00
2019-04-27T07:04:19.588Z,100.00
2019-04-27T07:06:55.404Z,100.00
2019-04-27T07:09:19.870Z,100.00
2019-04-27T07:11:49.491Z,100.00
2019-04-27T07:14:19.691Z,100.00
2019-04-27T07:16:50.680Z,100.00
2019-04-27T07:19:20.257Z,100.00
2019-04-27T07:21:49.770Z,100.00
2019-04-27T07:24:19.642Z,100.00
2019-04-27T07:26:48.907Z,100.00
2019-04-27T07:29:19.518Z,100.00
2019-04-27T07:31:49.565Z,100.00
2019-04-27T07:34:19.096Z,100.00
2019-04-27T07:36:49.148Z,100.00
2019-04-27T07:39:19.255Z,100.00
2019-04-27T07:41:48.860Z,100.00
2019-04-27T07:44:30.181Z,100.00
2019-04-27T07:47:19.588Z,100.00
2019-04-27T07:49:49.678Z,100.00
2019-04-27T07:52:20.412Z,100.00
2019-04-27T07:54:49.815Z,100.00
2019-04-27T07:57:19.741Z,100.00
2019-04-27T07:59:50.129Z,100.00
2019-04-27T08:02:19.486Z,96.65
2019-04-27T08:04:50.432Z,97.03
2019-04-27T08:07:19.806Z,96.86
2019-04-27T08:09:49.673Z,97.34
2019-04-27T08:12:20.919Z,90.88
2019-04-27T08:14:49.783Z,88.95
2019-04-27T08:17:19.307Z,88.95
2019-04-27T08:19:49.549Z,88.17
2019-04-27T08:22:19.577Z,89.38
2019-04-27T08:24:49.741Z,87.70
2019-04-27T08:27:29.334Z,89.51
2019-04-27T08:30:09.545Z,88.73
2019-04-27T08:32:41.569Z,90.72
2019-04-27T08:35:10.877Z,91.21
2019-04-27T08:37:39.967Z,89.44
2019-04-27T08:40:11.283Z,88.56
2019-04-27T08:42:40.370Z,86.90
2019-04-27T08:45:09.596Z,90.89
2019-04-27T08:47:39.420Z,88.87
2019-04-27T08:50:10.249Z,88.87
2019-04-27T08:52:41.795Z,88.62
2019-04-27T08:55:11.447Z,88.62
2019-04-27T08:57:40.462Z,90.14
2019-04-27T09:00:09.948Z,87.96
2019-04-27T09:02:44.799Z,87.96
2019-04-27T09:05:10.760Z,87.91
2019-04-27T09:07:59.769Z,90.99
2019-04-27T09:10:46.235Z,89.29
2019-04-27T09:13:30.513Z,89.29
2019-04-27T09:16:22.323Z,87.58
2019-04-27T09:18:53.163Z,84.98
2019-04-27T09:21:22.363Z,85.52
2019-04-27T09:23:51.385Z,82.79
2019-04-27T09:26:20.421Z,82.96
2019-04-27T09:28:51.238Z,80.15
2019-04-27T09:31:20.263Z,80.16
2019-04-27T09:33:49.453Z,82.26
2019-04-27T09:36:18.576Z,78.32
2019-04-27T09:39:01.488Z,79.46
2019-04-27T09:41:30.503Z,80.38
2019-04-27T09:44:02.421Z,74.19
2019-04-27T09:46:33.384Z,74.18
2019-04-27T09:49:02.482Z,70.55
2019-04-27T09:51:31.657Z,67.94
2019-04-27T09:54:00.819Z,68.69
2019-04-27T09:56:29.884Z,70.16
2019-04-27T09:58:59.062Z,72.57
2019-04-27T10:01:29.404Z,70.85
2019-04-27T10:04:00.678Z,70.85
2019-04-27T10:06:30.109Z,65.13
2019-04-27T10:09:00.430Z,65.76
2019-04-27T10:11:29.564Z,66.64
2019-04-27T10:13:58.802Z,64.70
2019-04-27T10:16:27.986Z,64.70
2019-04-27T10:18:57.040Z,66.34
2019-04-27T10:21:26.455Z,66.19
2019-04-27T10:23:56.781Z,66.19
2019-04-27T10:26:26.027Z,67.40
2019-04-27T10:28:56.004Z,67.40
2019-04-27T10:31:25.190Z,67.63
2019-04-27T10:33:55.819Z,66.15
2019-04-27T10:36:40.418Z,65.81
2019-04-27T10:39:17.067Z,65.63
2019-04-27T10:41:46.460Z,65.63
2019-04-27T10:44:16.261Z,63.82
2019-04-27T10:46:48.620Z,66.60
2019-04-27T10:49:17.726Z,65.14
2019-04-27T10:51:46.778Z,63.17
2019-04-27T10:54:17.129Z,64.05
2019-04-27T10:56:46.240Z,61.86
2019-04-27T10:59:16.462Z,60.34
2019-04-27T11:01:47.715Z,61.72
2019-04-27T11:04:29.422Z,60.62
2019-04-27T11:06:57.326Z,62.09
2019-04-27T11:09:28.713Z,62.77
2019-04-27T11:11:59.004Z,62.77
2019-04-27T11:14:28.069Z,59.89
2019-04-27T11:16:57.351Z,59.45
2019-04-27T11:19:28.602Z,60.92
2019-04-27T11:21:57.727Z,57.17
2019-04-27T11:24:26.836Z,57.11
2019-04-27T11:26:56.701Z,56.94
2019-04-27T11:29:27.595Z,56.46
2019-04-27T11:31:56.953Z,56.17
2019-04-27T11:34:45.910Z,56.28
2019-04-27T11:37:17.683Z,54.81
2019-04-27T11:39:47.105Z,55.43
2019-04-27T11:42:17.563Z,56.75
2019-04-27T11:44:47.119Z,56.79
2019-04-27T11:47:16.353Z,59.38
2019-04-27T11:49:45.725Z,65.92
2019-04-27T11:52:15.754Z,63.74
2019-04-27T11:54:57.403Z,63.74
2019-04-27T11:57:26.517Z,68.13
2019-04-27T11:59:56.311Z,85.53
2019-04-27T12:02:26.410Z,93.53
2019-04-27T12:04:56.815Z,91.49
2019-04-27T12:07:26.330Z,91.49
2019-04-27T12:09:55.654Z,86.10
2019-04-27T12:12:26.117Z,81.84
2019-04-27T12:14:56.155Z,81.84
2019-04-27T12:17:27.620Z,81.63
2019-04-27T12:19:56.080Z,87.51
2019-04-27T12:22:25.088Z,87.76
2019-04-27T12:24:54.119Z,92.59
2019-04-27T12:27:47.187Z,92.59
2019-04-27T12:30:26.048Z,81.34
2019-04-27T12:32:55.842Z,78.50
2019-04-27T12:35:25.687Z,79.73
2019-04-27T12:37:56.019Z,81.24
2019-04-27T12:40:26.824Z,83.60
2019-04-27T12:42:56.185Z,83.78
2019-04-27T12:45:26.683Z,83.71
2019-04-27T12:47:56.561Z,81.17
2019-04-27T12:50:26.906Z,79.10
2019-04-27T12:52:59.367Z,79.10
2019-04-27T12:55:50.765Z,88.18
2019-04-27T12:58:28.235Z,82.00
2019-04-27T13:00:57.742Z,82.00
2019-04-27T13:03:26.775Z,90.99
2019-04-27T13:05:55.981Z,90.20
2019-04-27T13:08:26.030Z,92.33
2019-04-27T13:10:57.281Z,94.52
2019-04-27T13:13:26.830Z,89.56
2019-04-27T13:15:56.424Z,89.96
2019-04-27T13:18:25.896Z,86.70
2019-04-27T13:20:54.938Z,86.94
2019-04-27T13:23:24.136Z,85.63
2019-04-27T13:25:53.232Z,86.38
2019-04-27T13:28:22.262Z,87.85
2019-04-27T13:30:51.371Z,89.16
2019-04-27T13:33:20.390Z,84.71
2019-04-27T13:35:49.469Z,88.26
2019-04-27T13:38:18.464Z,84.96
2019-04-27T13:41:05.865Z,84.96
2019-04-27T13:43:36.540Z,88.35
2019-04-27T13:46:25.901Z,81.07
2019-04-27T13:49:12.815Z,78.99
2019-04-27T13:51:50.404Z,75.83
2019-04-27T13:54:26.117Z,79.02
2019-04-27T13:56:50.275Z,77.67
2019-04-27T13:59:19.301Z,77.58
2019-04-27T14:01:48.497Z,75.58
2019-04-27T14:04:17.558Z,75.58
2019-04-27T14:06:46.622Z,74.50
2019-04-27T14:09:15.740Z,76.07
2019-04-27T14:11:44.880Z,78.00
2019-04-27T14:14:14.032Z,77.23
2019-04-27T14:16:43.883Z,76.27
2019-04-27T14:19:13.145Z,76.43
2019-04-27T14:21:45.156Z,74.89
2019-04-27T14:24:27.529Z,74.77
2019-04-27T14:26:48.459Z,74.07
2019-04-27T14:29:18.914Z,77.30
2019-04-27T14:31:49.726Z,75.47
2019-04-27T14:34:19.060Z,75.47
2019-04-27T14:36:48.847Z,73.09
2019-04-27T14:39:19.556Z,69.11
2019-04-27T14:41:49.166Z,70.28
2019-04-27T14:44:18.776Z,72.38
2019-04-27T14:46:48.561Z,69.05
2019-04-27T14:49:19.770Z,69.05
2019-04-27T14:51:48.746Z,69.41
2019-04-27T14:54:17.859Z,70.50
2019-04-27T14:56:49.459Z,70.50
2019-04-27T14:59:18.824Z,71.00
2019-04-27T15:01:48.763Z,68.79
2019-04-27T15:04:17.988Z,69.70
2019-04-27T15:06:47.094Z,69.03
2019-04-27T15:09:18.074Z,69.05
2019-04-27T15:11:49.203Z,70.01
2019-04-27T15:14:20.761Z,66.40
2019-04-27T15:16:49.735Z,68.55
2019-04-27T15:19:25.000Z,68.87
2019-04-27T15:21:58.548Z,69.74
2019-04-27T15:24:28.712Z,71.17
2019-04-27T15:26:58.967Z,79.42
2019-04-27T15:29:30.214Z,79.15
2019-04-27T15:32:04.208Z,79.00
2019-04-27T15:34:48.059Z,78.74
2019-04-27T15:37:39.325Z,78.58
2019-04-27T15:40:38.304Z,77.87
2019-04-27T15:43:15.729Z,77.87
2019-04-27T15:45:44.812Z,80.68
2019-04-27T15:48:15.655Z,75.30
2019-04-27T15:50:51.827Z,77.58
2019-04-27T15:53:20.919Z,77.04
2019-04-27T15:55:53.634Z,71.26
2019-04-27T15:58:25.065Z,72.36
2019-04-27T16:00:56.365Z,73.37
2019-04-27T16:03:26.770Z,70.77
2019-04-27T16:05:53.418Z,70.49
2019-04-27T16:08:22.589Z,68.61
2019-04-27T16:10:51.747Z,70.16
2019-04-27T16:13:20.759Z,71.79
2019-04-27T16:15:54.092Z,75.09
2019-04-27T16:18:20.531Z,71.53
2019-04-27T16:20:49.635Z,73.28
2019-04-27T16:23:18.811Z,71.87
2019-04-27T16:25:49.479Z,72.01
2019-04-27T16:28:18.669Z,72.77
2019-04-27T16:30:50.523Z,74.48
2019-04-27T16:33:22.093Z,75.71
2019-04-27T16:35:53.210Z,74.02
2019-04-27T16:38:33.548Z,74.00
2019-04-27T16:40:59.671Z,74.56
2019-04-27T16:43:32.652Z,75.26
2019-04-27T16:46:04.293Z,75.55
2019-04-27T16:48:34.707Z,76.43
2019-04-27T16:51:01.320Z,76.43
2019-04-27T16:53:39.445Z,73.75
2019-04-27T16:56:14.256Z,73.75
2019-04-27T16:58:39.488Z,72.76
2019-04-27T17:01:18.628Z,73.88
2019-04-27T17:03:48.494Z,73.88
2019-04-27T17:06:19.081Z,83.69
2019-04-27T17:08:49.664Z,94.16
2019-04-27T17:11:19.622Z,94.16
2019-04-27T17:13:54.003Z,94.15
2019-04-27T17:16:42.685Z,94.15
2019-04-27T17:19:16.338Z,91.38
2019-04-27T17:21:45.360Z,90.86
2019-04-27T17:24:18.031Z,90.86
2019-04-27T17:26:47.869Z,91.75
2019-04-27T17:29:20.355Z,89.36
2019-04-27T17:31:55.183Z,90.42
2019-04-27T17:34:25.320Z,88.11
2019-04-27T17:36:54.879Z,86.31
2019-04-27T17:39:24.766Z,84.46
2019-04-27T17:41:54.063Z,84.46
2019-04-27T17:44:23.367Z,86.63
2019-04-27T17:46:52.657Z,87.55
2019-04-27T17:49:21.676Z,87.55
2019-04-27T17:51:50.687Z,93.55
2019-04-27T17:54:19.733Z,92.54
2019-04-27T17:56:52.310Z,91.53
2019-04-27T17:59:20.919Z,89.64
2019-04-27T18:01:53.956Z,87.04
2019-04-27T18:04:21.049Z,86.82
2019-04-27T18:06:55.671Z,90.33
2019-04-27T18:09:24.361Z,90.66
2019-04-27T18:11:54.444Z,89.68
2019-04-27T18:14:23.743Z,89.68
2019-04-27T18:16:55.708Z,84.95
2019-04-27T18:19:33.289Z,84.95
2019-04-27T18:22:05.487Z,84.88
2019-04-27T18:24:48.218Z,85.71
2019-04-27T18:27:24.756Z,87.03
2019-04-27T18:29:59.288Z,84.99
2019-04-27T18:32:27.667Z,84.11
2019-04-27T18:34:58.446Z,83.67
2019-04-27T18:37:29.014Z,85.40
2019-04-27T18:39:58.569Z,85.09
2019-04-27T18:42:31.138Z,82.63
2019-04-27T18:45:06.001Z,84.31
2019-04-27T18:47:31.240Z,84.34
2019-04-27T18:50:25.186Z,86.89
2019-04-27T18:52:58.444Z,85.24
2019-04-27T18:55:28.957Z,81.17
2019-04-27T18:57:59.623Z,82.82
2019-04-27T19:00:29.479Z,86.28
2019-04-27T19:02:58.751Z,84.82
2019-04-27T19:05:38.014Z,87.03
2019-04-27T19:08:17.819Z,87.05
2019-04-27T19:10:47.008Z,87.05
2019-04-27T19:13:16.140Z,86.30
2019-04-27T19:15:57.940Z,85.95
2019-04-27T19:18:29.903Z,85.69
2019-04-27T19:21:39.331Z,83.32
2019-04-27T19:24:30.171Z,83.41
2019-04-27T19:36:59.930Z,85.59
2019-04-27T19:39:49.773Z,86.52
2019-04-27T19:45:53.634Z,84.45
2019-04-27T19:48:22.805Z,84.25
2019-04-27T19:50:52.109Z,86.82
2019-04-27T19:53:21.553Z,86.82
2019-04-27T19:56:11.478Z,83.78
2019-04-27T19:59:23.777Z,86.11
2019-04-27T20:10:43.172Z,84.76
2019-04-27T20:11:22.354Z,82.13
2019-04-27T20:14:14.448Z,81.57
2019-04-27T20:16:43.819Z,80.92
2019-04-27T20:19:13.003Z,80.92
2019-04-27T20:21:42.286Z,82.62
2019-04-27T20:24:11.836Z,82.62
2019-04-27T20:26:44.243Z,82.88
2019-04-27T20:30:12.141Z,81.36
2019-04-27T20:33:41.671Z,81.63
2019-04-27T20:39:59.095Z,84.61
2019-04-27T20:42:28.188Z,83.31
2019-04-27T20:44:57.286Z,84.20
2019-04-27T20:47:26.398Z,84.20
2019-04-27T20:49:55.418Z,85.27
2019-04-27T20:52:59.978Z,85.27
2019-04-27T20:55:32.607Z,87.92
2019-04-27T20:58:02.811Z,90.17
2019-04-27T21:00:38.634Z,92.24
2019-04-27T21:03:47.357Z,92.68
2019-04-27T21:06:32.491Z,95.70
2019-04-27T21:09:06.529Z,93.77
2019-04-27T21:11:49.333Z,93.11
2019-04-27T21:14:21.609Z,94.04
2019-04-27T21:16:51.661Z,92.94
2019-04-27T21:19:25.723Z,91.09
2019-04-27T21:21:57.888Z,94.68
2019-04-27T21:24:27.004Z,95.01
2019-04-27T21:26:56.405Z,96.46
2019-04-27T21:29:26.277Z,98.00
2019-04-27T21:32:21.159Z,98.00
2019-04-27T21:34:51.510Z,96.20
2019-04-27T21:37:20.880Z,98.51
2019-04-27T21:40:33.929Z,98.51
2019-04-27T21:43:03.075Z,92.68
2019-04-27T21:45:38.105Z,92.68
2019-04-27T21:48:14.550Z,95.69
2019-04-27T21:51:37.499Z,92.29
2019-04-27T21:54:32.695Z,92.29
2019-04-27T21:57:07.406Z,94.07
2019-04-27T21:59:38.266Z,92.09
2019-04-27T22:02:09.250Z,93.19
2019-04-27T22:05:01.329Z,92.97
2019-04-27T22:07:58.097Z,93.08
2019-04-27T22:10:33.675Z,93.25
2019-04-27T22:13:02.849Z,94.34
2019-04-27T22:15:44.915Z,94.34
2019-04-27T22:18:14.110Z,94.16
2019-04-27T22:20:52.064Z,94.91
2019-04-27T22:23:41.800Z,94.91
2019-04-27T22:26:11.325Z,93.55
2019-04-27T22:28:47.141Z,95.14
2019-04-27T22:31:14.399Z,98.31
2019-04-27T22:33:43.572Z,96.28
2019-04-27T22:36:55.531Z,96.80
2019-04-27T22:47:11.426Z,97.91
2019-04-27T22:50:17.326Z,100.00
2019-04-27T22:52:46.479Z,100.00
2019-04-27T22:55:15.460Z,100.00
2019-04-27T22:57:54.984Z,100.00
2019-04-27T23:01:01.563Z,100.00
2019-04-27T23:06:15.623Z,100.00
2019-04-27T23:08:47.945Z,100.00
2019-04-27T23:11:32.481Z,100.00
2019-04-27T23:14:11.136Z,100.00
2019-04-27T23:16:45.335Z,100.00
2019-04-27T23:19:17.786Z,100.00
2019-04-27T23:34:52.659Z,100.00
2019-04-27T23:40:07.368Z,100.00
2019-04-27T23:45:09.596Z,100.00
2019-04-27T23:48:58.431Z,100.00
2019-04-27T23:52:26.287Z,100.00
2019-04-27T23:54:43.085Z,100.00
2019-04-27T23:57:12.213Z,100.00
